createdAt,value
2023-03-02T00:01:55.130Z,9.57
2023-03-02T00:04:33.560Z,10.15
2023-03-02T00:07:08.095Z,9.50
2023-03-02T00:09:35.474Z,10.32
2023-03-02T00:12:02.478Z,10.85
2023-03-02T00:14:29.407Z,10.10
2023-03-02T00:16:56.504Z,10.75
2023-03-02T00:19:23.518Z,9.85
2023-03-02T00:21:50.615Z,11.27
2023-03-02T00:24:17.685Z,10.60
2023-03-02T00:26:44.937Z,10.35
2023-03-02T00:29:12.046Z,10.32
2023-03-02T00:31:39.243Z,9.60
2023-03-02T00:34:06.322Z,10.82
2023-03-02T00:36:33.250Z,8.90
2023-03-02T00:39:00.256Z,10.30
2023-03-02T00:41:27.412Z,10.00
2023-03-02T00:43:54.468Z,10.25
2023-03-02T00:46:23.028Z,10.70
2023-03-02T00:48:50.446Z,10.20
2023-03-02T00:51:17.884Z,9.63
2023-03-02T00:53:44.951Z,10.82
2023-03-02T00:56:12.241Z,10.95
2023-03-02T00:58:43.968Z,11.27
2023-03-02T01:01:12.077Z,10.00
2023-03-02T01:03:43.760Z,10.05
2023-03-02T01:06:15.472Z,10.52
2023-03-02T01:08:42.493Z,11.07
2023-03-02T01:11:16.717Z,11.18
2023-03-02T01:13:44.209Z,10.00
2023-03-02T01:16:12.112Z,11.00
2023-03-02T01:18:39.915Z,9.40
2023-03-02T01:21:12.309Z,9.40
2023-03-02T01:23:39.248Z,10.75
2023-03-02T01:26:06.411Z,9.20
2023-03-02T01:28:33.806Z,10.27
2023-03-02T01:31:02.775Z,10.38
2023-03-02T01:33:30.674Z,10.52
2023-03-02T01:35:57.656Z,9.43
2023-03-02T01:38:24.727Z,10.55
2023-03-02T01:40:52.051Z,9.98
2023-03-02T01:43:19.141Z,8.90
2023-03-02T01:45:47.664Z,8.73
2023-03-02T01:48:23.916Z,8.90
2023-03-02T01:50:50.979Z,10.18
2023-03-02T01:53:18.195Z,9.13
2023-03-02T01:55:45.937Z,8.95
2023-03-02T01:58:13.821Z,9.82
2023-03-02T02:00:41.157Z,10.38
2023-03-02T02:03:27.814Z,9.73
2023-03-02T02:06:25.210Z,11.07
2023-03-02T02:08:53.015Z,9.52
2023-03-02T02:11:19.984Z,10.95
2023-03-02T02:13:55.346Z,9.40
2023-03-02T02:16:22.392Z,9.60
2023-03-02T02:18:49.534Z,9.25
2023-03-02T02:21:16.473Z,8.63
2023-03-02T02:23:49.383Z,8.32
2023-03-02T02:26:22.841Z,9.60
2023-03-02T02:29:08.435Z,9.02
2023-03-02T02:31:50.663Z,9.05
2023-03-02T02:34:25.209Z,9.50
2023-03-02T02:36:55.338Z,8.88
2023-03-02T02:39:25.150Z,8.43
2023-03-02T02:41:55.700Z,8.15
2023-03-02T02:44:23.418Z,9.50
2023-03-02T02:46:50.383Z,9.07
2023-03-02T02:49:28.726Z,8.18
2023-03-02T02:51:55.711Z,8.57
2023-03-02T02:54:22.898Z,9.90
2023-03-02T02:56:50.612Z,9.35
2023-03-02T02:59:25.569Z,8.60
2023-03-02T03:01:52.899Z,9.82
2023-03-02T03:04:21.624Z,9.13
2023-03-02T03:07:02.485Z,8.80
2023-03-02T03:09:29.878Z,10.52
2023-03-02T03:12:14.975Z,9.15
2023-03-02T03:14:41.996Z,8.32
2023-03-02T03:17:13.550Z,8.95
2023-03-02T03:19:47.808Z,9.15
2023-03-02T03:22:16.385Z,9.45
2023-03-02T03:24:45.521Z,10.18
2023-03-02T03:27:14.840Z,8.75
2023-03-02T03:29:44.765Z,7.80
2023-03-02T03:32:13.849Z,8.68
2023-03-02T03:34:41.719Z,7.97
2023-03-02T03:37:17.436Z,8.75
2023-03-02T03:39:45.171Z,8.38
2023-03-02T03:42:12.219Z,9.07
2023-03-02T03:44:39.202Z,9.38
2023-03-02T03:47:06.435Z,10.38
2023-03-02T03:49:33.663Z,8.57
2023-03-02T03:52:00.783Z,9.60
2023-03-02T03:54:28.055Z,8.63
2023-03-02T03:56:55.365Z,8.38
2023-03-02T03:59:24.156Z,8.35
2023-03-02T04:01:57.223Z,8.60
2023-03-02T04:04:29.257Z,8.70
2023-03-02T04:06:56.833Z,8.48
2023-03-02T04:09:24.686Z,8.77
2023-03-02T04:11:53.593Z,9.13
2023-03-02T04:14:21.482Z,8.23
2023-03-02T04:16:49.019Z,9.70
2023-03-02T04:19:17.668Z,9.25
2023-03-02T04:21:49.097Z,9.73
2023-03-02T04:24:18.496Z,9.88
2023-03-02T04:26:45.623Z,9.20
2023-03-02T04:29:12.777Z,9.30
2023-03-02T04:31:40.771Z,9.48
2023-03-02T04:34:08.610Z,9.60
2023-03-02T04:36:39.018Z,8.50
2023-03-02T04:41:36.020Z,9.07
2023-03-02T04:44:03.111Z,9.45
2023-03-02T04:46:30.517Z,8.88
2023-03-02T04:48:57.634Z,9.68
2023-03-02T04:51:30.212Z,9.60
2023-03-02T04:53:59.237Z,9.18
2023-03-02T04:56:26.180Z,7.90
2023-03-02T04:58:53.363Z,8.32
2023-03-02T05:01:20.265Z,9.75
2023-03-02T05:03:47.372Z,8.25
2023-03-02T05:06:14.519Z,8.32
2023-03-02T05:08:41.611Z,8.82
2023-03-02T05:11:09.045Z,8.40
2023-03-02T05:13:36.273Z,8.98
2023-03-02T05:16:03.475Z,8.38
2023-03-02T05:18:31.293Z,8.23
2023-03-02T05:20:58.368Z,9.43
2023-03-02T05:23:26.015Z,9.70
2023-03-02T05:25:55.943Z,9.63
2023-03-02T05:28:24.144Z,8.73
2023-03-02T05:30:51.291Z,10.85
2023-03-02T05:33:18.621Z,9.18
2023-03-02T05:35:45.599Z,7.72
2023-03-02T05:38:12.613Z,8.90
2023-03-02T05:40:40.467Z,9.05
2023-03-02T05:43:07.498Z,8.35
2023-03-02T05:45:36.410Z,9.45
2023-03-02T05:48:03.612Z,9.57
2023-03-02T05:50:30.759Z,8.00
2023-03-02T05:53:00.235Z,9.98
2023-03-02T05:55:27.289Z,10.98
2023-03-02T05:57:54.693Z,9.13
2023-03-02T06:00:22.023Z,8.75
2023-03-02T06:02:49.053Z,9.30
2023-03-02T06:05:18.384Z,10.07
2023-03-02T06:07:45.509Z,8.82
2023-03-02T06:10:12.754Z,9.45
2023-03-02T06:12:39.809Z,9.60
2023-03-02T06:15:07.308Z,8.90
2023-03-02T06:17:34.699Z,9.88
2023-03-02T06:20:01.646Z,10.63
2023-03-02T06:22:28.652Z,11.73
2023-03-02T06:24:55.580Z,11.10
2023-03-02T06:27:22.557Z,10.73
2023-03-02T06:29:49.772Z,12.82
2023-03-02T06:32:17.037Z,11.15
2023-03-02T06:34:44.408Z,11.68
2023-03-02T06:37:13.016Z,11.38
2023-03-02T06:39:39.956Z,14.85
2023-03-02T06:42:06.941Z,12.70
2023-03-02T06:44:33.886Z,11.60
2023-03-02T06:47:00.829Z,11.23
2023-03-02T06:49:27.936Z,10.68
2023-03-02T06:51:54.934Z,11.23
2023-03-02T06:54:24.080Z,10.57
2023-03-02T06:56:51.213Z,11.10
2023-03-02T06:59:18.232Z,11.27
2023-03-02T07:01:45.202Z,11.63
2023-03-02T07:04:12.247Z,12.13
2023-03-02T07:06:39.251Z,12.75
2023-03-02T07:09:06.195Z,11.57
2023-03-02T07:11:33.403Z,12.32
2023-03-02T07:14:01.121Z,13.35
2023-03-02T07:16:31.262Z,13.38
2023-03-02T07:18:58.353Z,13.68
2023-03-02T07:21:25.364Z,14.05
2023-03-02T07:23:52.571Z,11.02
2023-03-02T07:26:19.514Z,11.88
2023-03-02T07:28:46.532Z,11.45
2023-03-02T07:31:13.839Z,13.60
2023-03-02T07:33:40.894Z,15.25
2023-03-02T07:36:08.644Z,16.02
2023-03-02T07:38:36.581Z,12.88
2023-03-02T07:41:07.230Z,12.70
2023-03-02T07:43:35.678Z,16.50
2023-03-02T07:46:04.549Z,15.52
2023-03-02T07:48:32.438Z,10.15
2023-03-02T07:51:00.624Z,10.63
2023-03-02T07:53:28.076Z,10.80
2023-03-02T07:55:55.277Z,10.13
2023-03-02T07:58:22.284Z,10.15
2023-03-02T08:00:49.312Z,9.55
2023-03-02T08:03:16.447Z,11.30
2023-03-02T08:05:43.668Z,10.75
2023-03-02T08:08:10.640Z,10.52
2023-03-02T08:10:38.045Z,9.52
2023-03-02T08:13:05.292Z,7.78
2023-03-02T08:15:32.619Z,8.30
2023-03-02T08:17:59.715Z,8.73
2023-03-02T08:20:26.702Z,8.40
2023-03-02T08:22:53.712Z,9.18
2023-03-02T08:25:20.680Z,8.73
2023-03-02T08:27:47.733Z,9.30
2023-03-02T08:30:14.906Z,9.13
2023-03-02T08:32:41.969Z,7.32
2023-03-02T08:35:09.239Z,8.73
2023-03-02T08:37:36.395Z,9.07
2023-03-02T08:40:04.043Z,8.15
2023-03-02T08:42:31.038Z,8.23
2023-03-02T08:44:58.021Z,7.07
2023-03-02T08:47:25.026Z,7.78
2023-03-02T08:49:51.988Z,7.90
2023-03-02T08:52:19.169Z,8.18
2023-03-02T08:54:46.449Z,8.00
2023-03-02T08:57:14.550Z,8.05
2023-03-02T08:59:41.548Z,7.97
2023-03-02T09:02:11.411Z,7.93
2023-03-02T09:04:38.729Z,8.13
2023-03-02T09:07:06.048Z,7.00
2023-03-02T09:09:34.378Z,7.28
2023-03-02T09:12:01.987Z,6.88
2023-03-02T09:14:29.137Z,6.88
2023-03-02T09:16:56.156Z,6.13
2023-03-02T09:19:23.218Z,6.03
2023-03-02T09:21:50.370Z,6.25
2023-03-02T09:24:17.375Z,6.05
2023-03-02T09:26:44.566Z,5.65
2023-03-02T09:29:11.960Z,5.60
2023-03-02T09:31:39.457Z,5.97
2023-03-02T09:34:07.172Z,6.45
2023-03-02T09:36:34.779Z,5.10
2023-03-02T09:39:03.825Z,6.78
2023-03-02T09:41:53.963Z,5.95
2023-03-02T09:44:45.261Z,6.30
2023-03-02T09:47:12.272Z,6.30
2023-03-02T09:49:57.956Z,5.63
2023-03-02T09:52:35.864Z,6.90
2023-03-02T09:55:25.068Z,5.38
2023-03-02T09:57:53.135Z,6.32
2023-03-02T10:00:27.083Z,5.82
2023-03-02T10:03:16.503Z,6.40
2023-03-02T10:05:48.967Z,6.10
2023-03-02T10:08:21.768Z,4.28
2023-03-02T10:11:03.450Z,6.70
2023-03-02T10:13:52.512Z,7.55
2023-03-02T10:16:50.266Z,4.72
2023-03-02T10:19:32.588Z,6.40
2023-03-02T10:22:24.460Z,5.90
2023-03-02T10:25:23.905Z,6.50
2023-03-02T10:27:52.782Z,6.78
2023-03-02T10:30:34.116Z,5.72
2023-03-02T10:33:22.999Z,6.00
2023-03-02T10:35:51.216Z,5.97
2023-03-02T10:38:20.293Z,5.88
2023-03-02T10:41:00.380Z,4.95
2023-03-02T10:43:34.775Z,5.25
2023-03-02T10:46:08.904Z,5.43
2023-03-02T10:48:54.629Z,5.97
2023-03-02T10:51:28.821Z,6.40
2023-03-02T10:54:10.485Z,5.93
2023-03-02T10:56:37.740Z,5.78
2023-03-02T10:59:29.807Z,5.22
2023-03-02T11:02:01.761Z,5.80
2023-03-02T11:04:29.630Z,4.38
2023-03-02T11:07:14.919Z,5.95
2023-03-02T11:09:42.013Z,5.65
2023-03-02T11:12:16.506Z,5.55
2023-03-02T11:14:43.620Z,5.78
2023-03-02T11:17:31.168Z,4.40
2023-03-02T11:19:58.216Z,4.53
2023-03-02T11:22:34.731Z,4.65
2023-03-02T11:25:01.969Z,4.88
2023-03-02T11:27:31.240Z,4.63
2023-03-02T11:30:04.819Z,5.15
2023-03-02T11:32:50.479Z,4.60
2023-03-02T11:35:39.413Z,4.70
2023-03-02T11:38:19.787Z,4.80
2023-03-02T11:40:51.872Z,5.20
2023-03-02T11:43:19.130Z,4.82
2023-03-02T11:46:10.914Z,5.32
2023-03-02T11:48:43.201Z,5.38
2023-03-02T11:51:15.039Z,4.22
2023-03-02T11:53:43.546Z,4.97
2023-03-02T11:56:10.558Z,5.68
2023-03-02T11:58:37.955Z,5.30
2023-03-02T12:01:05.103Z,5.53
2023-03-02T12:03:31.945Z,4.82
2023-03-02T12:06:07.269Z,5.28
2023-03-02T12:08:40.470Z,4.78
2023-03-02T12:11:25.662Z,5.57
2023-03-02T12:13:52.759Z,5.15
2023-03-02T12:16:36.810Z,5.45
2023-03-02T12:19:28.998Z,5.13
2023-03-02T12:22:00.578Z,4.85
2023-03-02T12:24:32.396Z,5.20
2023-03-02T12:27:27.335Z,5.18
2023-03-02T12:30:08.898Z,5.63
2023-03-02T12:32:36.162Z,5.00
2023-03-02T12:35:08.877Z,5.30
2023-03-02T12:37:59.181Z,5.20
2023-03-02T12:40:28.946Z,5.40
2023-03-02T12:43:18.833Z,5.32
2023-03-02T12:46:23.288Z,5.25
2023-03-02T12:48:53.624Z,5.65
2023-03-02T12:51:22.462Z,5.53
2023-03-02T12:53:50.596Z,4.65
2023-03-02T12:56:24.528Z,5.43
2023-03-02T12:58:52.286Z,5.20
2023-03-02T13:01:27.866Z,5.00
2023-03-02T13:03:55.213Z,5.07
2023-03-02T13:06:23.866Z,3.28
2023-03-02T13:08:53.467Z,4.85
2023-03-02T13:11:29.053Z,4.97
2023-03-02T13:13:56.743Z,4.65
2023-03-02T13:16:28.447Z,4.82
2023-03-02T13:18:57.854Z,5.20
2023-03-02T13:21:37.968Z,4.43
2023-03-02T13:24:33.304Z,4.82
2023-03-02T13:29:32.045Z,5.60
2023-03-02T13:32:34.026Z,4.40
2023-03-02T13:35:02.638Z,4.40
2023-03-02T13:37:43.625Z,5.15
2023-03-02T13:40:23.353Z,4.78
2023-03-02T13:42:51.798Z,5.05
2023-03-02T13:45:21.879Z,4.13
2023-03-02T13:47:48.939Z,4.57
2023-03-02T13:50:29.404Z,4.90
2023-03-02T13:53:02.505Z,4.28
2023-03-02T13:55:30.053Z,4.55
2023-03-02T13:57:56.967Z,4.32
2023-03-02T14:00:28.677Z,4.03
2023-03-02T14:02:55.724Z,5.65
2023-03-02T14:05:24.497Z,4.32
2023-03-02T14:07:51.649Z,4.63
2023-03-02T14:10:19.065Z,4.72
2023-03-02T14:12:54.006Z,4.65
2023-03-02T14:15:21.055Z,5.55
2023-03-02T14:17:49.438Z,4.20
2023-03-02T14:20:21.029Z,4.70
2023-03-02T14:22:48.216Z,4.05
2023-03-02T14:25:15.497Z,5.53
2023-03-02T14:27:42.879Z,5.80
2023-03-02T14:30:20.365Z,5.10
2023-03-02T14:32:47.439Z,4.88
2023-03-02T14:35:15.950Z,4.90
2023-03-02T14:37:47.603Z,4.13
2023-03-02T14:40:18.885Z,4.60
2023-03-02T14:42:46.420Z,4.82
2023-03-02T14:45:13.592Z,4.65
2023-03-02T14:47:40.541Z,5.15
2023-03-02T14:50:07.960Z,5.05
2023-03-02T14:52:44.536Z,6.15
2023-03-02T14:55:37.781Z,4.68
2023-03-02T14:58:11.006Z,5.22
2023-03-02T15:00:38.012Z,4.72
2023-03-02T15:03:05.025Z,5.32
2023-03-02T15:05:32.245Z,4.78
2023-03-02T15:07:59.246Z,4.55
2023-03-02T15:10:26.225Z,4.70
2023-03-02T15:12:54.973Z,4.93
2023-03-02T15:15:23.062Z,5.07
2023-03-02T15:17:51.605Z,5.28
2023-03-02T15:20:18.529Z,4.78
2023-03-02T15:22:46.625Z,5.47
2023-03-02T15:25:13.661Z,4.93
2023-03-02T15:27:41.635Z,4.13
2023-03-02T15:30:09.241Z,4.80
2023-03-02T15:32:36.741Z,4.28
2023-03-02T15:35:04.673Z,4.68
2023-03-02T15:37:31.889Z,5.28
2023-03-02T15:40:01.435Z,5.15
2023-03-02T15:42:28.404Z,5.25
2023-03-02T15:44:55.362Z,5.05
2023-03-02T15:47:22.570Z,5.30
2023-03-02T15:49:50.180Z,5.38
2023-03-02T15:52:17.221Z,4.95
2023-03-02T15:54:44.164Z,5.13
2023-03-02T15:57:11.574Z,4.55
2023-03-02T15:59:38.618Z,5.10
2023-03-02T16:02:05.641Z,5.15
2023-03-02T16:04:32.826Z,5.25
2023-03-02T16:06:59.863Z,5.00
2023-03-02T16:09:29.039Z,5.30
2023-03-02T16:11:56.257Z,5.90
2023-03-02T16:14:23.447Z,5.88
2023-03-02T16:16:50.627Z,4.38
2023-03-02T16:19:19.185Z,4.55
2023-03-02T16:21:47.318Z,4.63
2023-03-02T16:24:16.378Z,4.63
2023-03-02T16:26:43.619Z,4.90
2023-03-02T16:29:10.881Z,5.07
2023-03-02T16:31:39.250Z,4.15
2023-03-02T16:34:08.861Z,4.72
2023-03-02T16:36:37.009Z,4.43
2023-03-02T16:39:04.416Z,4.60
2023-03-02T16:41:31.390Z,4.40
2023-03-02T16:43:59.153Z,4.53
2023-03-02T16:46:27.790Z,3.70
2023-03-02T16:48:55.140Z,4.82
2023-03-02T16:51:22.209Z,5.60
2023-03-02T16:53:49.645Z,6.97
2023-03-02T16:56:16.845Z,6.82
2023-03-02T16:58:43.928Z,7.72
2023-03-02T17:01:13.887Z,5.88
2023-03-02T17:03:41.034Z,6.68
2023-03-02T17:06:09.590Z,6.25
2023-03-02T17:08:37.007Z,7.75
2023-03-02T17:11:04.106Z,8.88
2023-03-02T17:13:31.464Z,10.20
2023-03-02T17:15:58.583Z,9.70
2023-03-02T17:18:27.717Z,10.20
2023-03-02T17:20:57.506Z,10.65
2023-03-02T17:23:25.164Z,10.57
2023-03-02T17:25:54.025Z,11.05
2023-03-02T17:28:21.037Z,11.98
2023-03-02T17:30:50.390Z,11.57
2023-03-02T17:33:18.368Z,12.30
2023-03-02T17:35:46.468Z,11.15
2023-03-02T17:38:15.169Z,12.13
2023-03-02T17:40:42.758Z,12.07
2023-03-02T17:43:10.924Z,12.57
2023-03-02T17:45:38.209Z,10.90
2023-03-02T17:48:05.642Z,11.50
2023-03-02T17:50:32.796Z,12.57
2023-03-02T17:53:00.397Z,11.63
2023-03-02T17:55:27.487Z,11.55
2023-03-02T17:57:54.579Z,10.95
2023-03-02T18:00:22.665Z,12.88
2023-03-02T18:02:50.274Z,12.80
2023-03-02T18:05:20.017Z,13.55
2023-03-02T18:07:47.369Z,15.65
2023-03-02T18:10:14.406Z,17.38
2023-03-02T18:12:41.501Z,18.67
2023-03-02T18:15:09.273Z,19.05
2023-03-02T18:17:36.348Z,16.77
2023-03-02T18:20:03.816Z,18.27
2023-03-02T18:22:31.003Z,14.55
2023-03-02T18:24:58.090Z,13.68
2023-03-02T18:27:25.207Z,15.45
2023-03-02T18:29:52.298Z,13.93
2023-03-02T18:32:20.797Z,14.73
2023-03-02T18:34:48.725Z,13.10
2023-03-02T18:37:15.806Z,13.23
2023-03-02T18:39:43.759Z,14.93
2023-03-02T18:42:12.656Z,14.60
2023-03-02T18:44:39.791Z,16.48
2023-03-02T18:47:09.697Z,14.02
2023-03-02T18:49:38.348Z,15.20
2023-03-02T18:52:07.029Z,18.10
2023-03-02T18:54:34.087Z,16.10
2023-03-02T18:57:01.806Z,18.77
2023-03-02T18:59:29.971Z,20.35
2023-03-02T19:01:57.750Z,16.20
2023-03-02T19:04:26.794Z,16.05
2023-03-02T19:06:55.742Z,15.77
2023-03-02T19:09:23.740Z,13.10
2023-03-02T19:11:52.069Z,14.45
2023-03-02T19:14:19.370Z,14.48
2023-03-02T19:16:46.959Z,15.93
2023-03-02T19:19:14.182Z,14.18
2023-03-02T19:21:41.361Z,15.05
2023-03-02T19:24:09.391Z,14.98
2023-03-02T19:26:36.450Z,13.50
2023-03-02T19:29:06.326Z,11.98
2023-03-02T19:31:33.626Z,11.63
2023-03-02T19:34:00.730Z,13.38
2023-03-02T19:36:27.819Z,13.32
2023-03-02T19:38:54.799Z,13.88
2023-03-02T19:41:22.205Z,14.00
2023-03-02T19:43:49.460Z,16.73
2023-03-02T19:46:17.288Z,14.70
2023-03-02T19:48:44.366Z,18.13
2023-03-02T19:51:13.822Z,17.85
2023-03-02T19:53:41.409Z,16.10
2023-03-02T19:56:12.028Z,15.82
2023-03-02T19:58:47.037Z,12.98
2023-03-02T20:01:16.896Z,15.27
2023-03-02T20:03:44.432Z,16.63
2023-03-02T20:06:11.523Z,17.50
2023-03-02T20:08:38.683Z,18.48
2023-03-02T20:11:05.715Z,24.33
2023-03-02T20:13:33.310Z,20.83
2023-03-02T20:16:00.876Z,20.40
2023-03-02T20:18:28.051Z,16.35
2023-03-02T20:20:55.063Z,17.00
2023-03-02T20:23:22.420Z,20.95
2023-03-02T20:25:50.112Z,17.63
2023-03-02T20:28:18.383Z,19.10
2023-03-02T20:30:48.255Z,16.70
2023-03-02T20:33:15.815Z,18.55
2023-03-02T20:35:43.765Z,16.83
2023-03-02T20:38:25.431Z,16.50
2023-03-02T20:40:53.327Z,17.90
2023-03-02T20:43:20.783Z,16.05
2023-03-02T20:45:47.820Z,16.63
2023-03-02T20:48:14.804Z,15.70
2023-03-02T20:50:41.883Z,16.08
2023-03-02T20:53:09.668Z,16.10
2023-03-02T20:55:36.874Z,16.67
2023-03-02T20:58:05.466Z,15.27
2023-03-02T21:00:32.955Z,17.90
2023-03-02T21:02:59.981Z,15.20
2023-03-02T21:05:27.622Z,19.95
2023-03-02T21:07:54.775Z,18.85
2023-03-02T21:10:28.144Z,20.88
2023-03-02T21:12:55.284Z,20.30
2023-03-02T21:15:23.955Z,20.75
2023-03-02T21:17:51.807Z,22.05
2023-03-02T21:20:18.847Z,20.48
2023-03-02T21:22:46.794Z,20.50
2023-03-02T21:25:13.941Z,19.90
2023-03-02T21:27:41.180Z,18.17
2023-03-02T21:30:09.477Z,18.63
2023-03-02T21:32:36.387Z,18.85
2023-03-02T21:35:03.362Z,17.85
2023-03-02T21:37:30.569Z,18.75
2023-03-02T21:39:59.090Z,18.98
2023-03-02T21:42:26.619Z,19.02
2023-03-02T21:44:56.038Z,17.70
2023-03-02T21:47:23.090Z,18.52
2023-03-02T21:49:50.059Z,17.35
2023-03-02T21:52:17.001Z,17.48
2023-03-02T21:54:44.103Z,17.20
2023-03-02T21:57:11.156Z,18.10
2023-03-02T21:59:38.141Z,17.58
2023-03-02T22:02:05.208Z,16.80
2023-03-02T22:04:33.704Z,17.35
2023-03-02T22:07:01.575Z,15.55
2023-03-02T22:09:28.697Z,16.63
2023-03-02T22:11:55.721Z,16.48
2023-03-02T22:14:22.701Z,16.95
2023-03-02T22:16:49.769Z,18.73
2023-03-02T22:19:23.457Z,17.35
2023-03-02T22:21:50.766Z,20.42
2023-03-02T22:24:23.512Z,20.73
2023-03-02T22:27:02.144Z,17.48
2023-03-02T22:29:30.064Z,20.25
2023-03-02T22:31:59.412Z,19.90
2023-03-02T22:34:30.162Z,21.17
2023-03-02T22:37:03.200Z,18.58
2023-03-02T22:39:32.320Z,20.33
2023-03-02T22:42:10.349Z,21.83
2023-03-02T22:44:39.099Z,21.38
2023-03-02T22:47:15.724Z,23.30
2023-03-02T22:49:43.158Z,22.00
2023-03-02T22:52:20.224Z,19.67
2023-03-02T22:54:47.395Z,20.30
2023-03-02T22:57:29.125Z,17.70
2023-03-02T23:00:30.881Z,17.88
2023-03-02T23:02:58.060Z,19.70
2023-03-02T23:05:26.299Z,18.15
2023-03-02T23:08:17.096Z,16.70
2023-03-02T23:10:44.878Z,16.55
2023-03-02T23:13:12.676Z,15.68
2023-03-02T23:15:41.744Z,14.75
2023-03-02T23:18:26.948Z,16.42
2023-03-02T23:20:54.226Z,16.00
2023-03-02T23:23:25.096Z,16.75
2023-03-02T23:25:52.142Z,16.23
2023-03-02T23:28:19.174Z,16.52
2023-03-02T23:30:47.667Z,15.50
2023-03-02T23:33:14.645Z,15.32
2023-03-02T23:35:42.175Z,17.30
2023-03-02T23:38:09.189Z,16.95
2023-03-02T23:40:36.169Z,15.90
2023-03-02T23:43:03.252Z,17.23
2023-03-02T23:45:30.293Z,16.00
2023-03-02T23:47:59.215Z,15.98
2023-03-02T23:50:26.317Z,17.02
2023-03-02T23:52:53.391Z,17.15
2023-03-02T23:55:20.368Z,17.15
2023-03-02T23:57:47.506Z,19.17
